Latest Coastal Weather Observations for Hindmarsh Island

IDS60701

Issued at 5:21 pm CST Sunday 14 July 2024 (issued every 10 minutes, with the page automatically refreshed every 10 minutes)

About coastal observations | Map of coastal stations | Coastal observations for SA | Marine services | Other Formats
Station Details ID: 023894 Name: HINDMARSH ISLAND AWS Lat: -35.52 Lon: 138.82 Height: 11.0 m
Data from the previous 72 hours. | See also: Recent months at Hindmarsh Island
Date/Time
CST
Wind Sea
Height
m
Swell Vis
km
Cloud Weather Temp
°C
Press
MSL
hPa
Rain since
9am
mm
Dir  Spd
kts
Gust
kts
Height
m
Period
s
Dir
14/05:00pm SW 9 11 - - - - - - - 11.9 1017.6 0.0
14/04:30pm SW 10 13 - - - - - - - 12.9 1017.5 0.0
14/04:00pm SW 10 11 - - - - - - - 13.1 1017.5 0.0
14/03:30pm SW 9 11 - - - - - - - 13.8 1017.6 0.0
14/03:00pm SW 10 11 - - - - - - - 13.7 1017.5 0.0
14/02:30pm SW 11 13 - - - - - - - 13.9 1017.5 0.0
14/02:00pm SW 10 12 - - - - - - - 13.9 1017.7 0.0
14/01:30pm SSW 10 11 - - - - - - - 14.0 1017.7 0.0
14/01:00pm SSW 10 13 - - - - - - - 14.0 1018.0 0.0
14/12:30pm SSW 10 13 - - - - - - - 14.1 1018.5 0.0
14/12:00pm SSW 8 10 - - - - - - - 13.7 1018.9 0.0
14/11:30am SSW 9 11 - - - - - - - 13.6 1019.5 0.0
14/11:00am SSW 9 10 - - - - - - - 13.3 1019.9 0.0
14/10:30am SSW 9 11 - - - - - - - 13.0 1020.1 0.0
14/10:00am WSW 7 8 - - - - - - - 12.3 1020.0 0.0
14/09:30am WSW 6 9 - - - - - - - 12.5 1019.9 0.0
14/09:00am W 7 9 - - - - - - - 11.1 1019.7 1.6
14/08:30am WNW 6 7 - - - - - - - 9.6 1019.5 1.6
14/08:00am WNW 6 7 - - - - - - - 8.2 1019.4 1.6
14/07:30am WNW 6 7 - - - - - - - 8.1 1019.3 1.6
14/07:00am WNW 6 7 - - - - - - - 8.5 1019.1 1.6
14/06:30am WNW 7 8 - - - - - - - 8.6 1019.0 1.6
14/06:00am W 6 8 - - - - - - - 8.8 1018.9 1.6
14/05:30am W 6 8 - - - - - - - 8.7 1018.7 1.6
14/05:00am W 4 6 - - - - - - - 8.8 1018.6 1.6
14/04:30am W 5 7 - - - - - - - 8.8 1018.5 1.6
14/04:00am WNW 6 7 - - - - - - - 8.7 1018.6 1.6
14/03:30am WNW 6 7 - - - - - - - 9.1 1018.7 1.6
14/03:00am W 6 6 - - - - - - - 9.2 1018.7 1.6
14/02:30am WNW 6 6 - - - - - - - 9.2 1018.8 1.6
14/02:00am WNW 6 7 - - - - - - - 9.4 1019.0 1.6
14/01:30am WNW 5 6 - - - - - - - 9.5 1018.7 1.6
14/01:00am W 7 8 - - - - - - - 10.1 1018.8 1.6
14/12:30am W 6 9 - - - - - - - 10.7 1018.9 1.6
14/12:00am WSW 5 10 - - - - - - Recent precip. 11.3 1019.2 1.4
 
Date/Time
CST
Wind Sea
Height
m
Swell Vis
km
Cloud Weather Temp
°C
Press
MSL
hPa
Rain since
9am
mm
Dir  Spd
kts
Gust
kts
Height
m
Period
s
Dir
13/11:30pm SSW 5 7 - - - - - - - 11.0 1019.4 1.2
13/11:00pm W 5 7 - - - - - - - 10.9 1019.4 1.2
13/10:30pm W 6 7 - - - - - - - 10.9 1019.4 1.2
13/10:00pm W 6 7 - - - - - - - 10.8 1019.4 1.2
13/09:30pm WSW 7 8 - - - - - - - 11.1 1019.4 1.2
13/09:00pm W 6 8 - - - - - - Recent precip. 11.7 1019.6 0.4
13/08:30pm W 4 6 - - - - - - - 11.8 1019.3 0.2
13/08:00pm WSW 4 5 - - - - - - - 11.8 1019.1 0.2
13/07:30pm W 6 7 - - - - - - - 11.8 1019.0 0.2
13/07:00pm WSW 5 7 - - - - - - - 11.8 1018.9 0.0
13/06:30pm W 4 6 - - - - - - - 11.9 1018.8 0.0
13/06:00pm NW 4 5 - - - - - - - 12.1 1018.5 0.0
13/05:30pm WNW 7 10 - - - - - - - 12.3 1018.4 0.0
13/05:00pm W 8 11 - - - - - - - 13.7 1018.3 0.0
13/04:30pm W 8 11 - - - - - - - 14.2 1018.1 0.0
13/04:00pm WSW 7 10 - - - - - - - 14.9 1018.1 0.0
13/03:30pm W 7 11 - - - - - - - 15.7 1018.0 0.0
13/03:00pm WSW 7 11 - - - - - - - 15.9 1017.9 0.0
13/02:30pm W 10 15 - - - - - - - 15.7 1017.8 0.0
13/02:00pm WSW 5 7 - - - - - - - 14.3 1018.0 0.0
13/01:30pm W 8 11 - - - - - - - 13.7 1018.2 0.0
13/01:00pm W 9 12 - - - - - - - 15.0 1018.4 0.0
13/12:30pm WSW 8 12 - - - - - - - 14.0 1018.8 0.0
13/12:00pm WSW 7 10 - - - - - - - 14.0 1019.3 0.0
13/11:30am W 8 11 - - - - - - - 14.3 1019.7 0.0
13/11:00am W 9 13 - - - - - - - 14.7 1020.1 0.0
13/10:30am W 10 13 - - - - - - - 14.5 1020.3 0.0
13/10:00am WNW 7 10 - - - - - - - 13.9 1020.2 0.0
13/09:30am NW 5 7 - - - - - - - 12.9 1020.1 0.0
13/09:00am WNW 5 6 - - - - - - - 11.2 1019.9 0.4
13/08:30am NW 6 7 - - - - - - - 9.9 1019.6 0.4
13/08:00am NW 6 7 - - - - - - - 8.9 1019.5 0.4
13/07:30am WNW 7 8 - - - - - - - 8.9 1019.3 0.4
13/07:00am WNW 7 8 - - - - - - - 8.8 1019.0 0.4
13/06:30am WNW 6 7 - - - - - - - 9.2 1018.8 0.4
13/06:00am WNW 6 7 - - - - - - - 9.3 1018.6 0.4
13/05:30am NW 6 6 - - - - - - - 9.6 1018.3 0.4
13/05:00am NW 6 7 - - - - - - - 10.0 1018.2 0.4
13/04:30am WNW 6 7 - - - - - - - 10.8 1018.2 0.4
13/04:00am W 7 10 - - - - - - - 10.9 1018.1 0.4
13/03:30am W 6 7 - - - - - - - 10.8 1018.4 0.4
13/03:00am WNW 4 5 - - - - - - Rain 10.5 1018.3 0.4
13/02:30am W 5 7 - - - - - - - 11.0 1018.3 0.2
13/02:00am WNW 6 8 - - - - - - - 10.7 1018.3 0.2
13/01:30am W 4 5 - - - - - - - 10.8 1018.1 0.2
13/01:00am WSW 5 6 - - - - - - - 11.3 1018.1 0.2
13/12:30am SW 8 11 - - - - - - - 11.6 1018.4 0.2
13/12:00am SW 9 11 - - - - - - - 11.6 1018.5 0.2
 
Date/Time
CST
Wind Sea
Height
m
Swell Vis
km
Cloud Weather Temp
°C
Press
MSL
hPa
Rain since
9am
mm
Dir  Spd
kts
Gust
kts
Height
m
Period
s
Dir
12/11:30pm SW 12 17 - - - - - - - 11.9 1018.7 0.2
12/11:00pm WNW 7 8 - - - - - - - 10.4 1018.6 0.2
12/10:30pm NW 6 6 - - - - - - - 10.1 1018.6 0.2
12/10:00pm NNW 6 7 - - - - - - - 10.3 1018.3 0.2
12/09:30pm W 5 6 - - - - - - - 11.1 1018.2 0.2
12/09:00pm WSW 5 6 - - - - - - Recent precip. 11.5 1018.3 0.2
12/08:30pm WSW 7 9 - - - - - - - 11.9 1018.1 0.2
12/08:00pm NW 5 5 - - - - - - - 11.0 1017.8 0.0
12/07:30pm WNW 6 7 - - - - - - - 11.0 1017.5 0.0
12/07:00pm WNW 6 8 - - - - - - - 11.4 1017.2 0.0
12/06:30pm NW 6 7 - - - - - - - 11.6 1017.1 0.0
12/06:00pm WNW 7 9 - - - - - - - 12.1 1016.9 0.0
12/05:30pm WSW 6 8 - - - - - - - 12.1 1016.7 0.0
12/05:00pm SW 10 16 - - - - - - - 13.2 1016.6 0.0
12/04:30pm W 11 15 - - - - - - - 14.9 1016.5 0.0
12/04:00pm WNW 12 18 - - - - - - - 15.2 1016.4 0.0
12/03:30pm W 11 14 - - - - - - - 15.3 1016.4 0.0
12/03:00pm W 15 21 - - - - - - - 15.9 1016.2 0.0
12/02:30pm WNW 14 21 - - - - - - - 15.9 1016.1 0.0
12/02:00pm WNW 14 19 - - - - - - - 15.8 1015.9 0.0
12/01:30pm WNW 14 21 - - - - - - - 15.7 1015.9 0.0
12/01:00pm WNW 13 19 - - - - - - - 15.3 1016.1 0.0
12/12:30pm W 14 20 - - - - - - - 15.7 1016.4 0.0
12/12:00pm W 13 19 - - - - - - - 15.6 1016.8 0.0
12/11:30am W 13 19 - - - - - - - 15.3 1017.2 0.0
12/11:00am WNW 13 19 - - - - - - - 15.0 1017.4 0.0
12/10:30am WNW 12 17 - - - - - - - 14.7 1017.4 0.0
12/10:00am WNW 7 12 - - - - - - - 14.0 1017.3 0.0
12/09:30am NW 7 11 - - - - - - - 13.1 1017.2 0.0
12/09:00am NW 7 9 - - - - - - - 11.7 1016.9 1.4
12/08:30am NNW 6 9 - - - - - - - 10.6 1016.6 1.4
12/08:00am NW 6 7 - - - - - - - 9.8 1016.5 1.4
12/07:30am NW 7 8 - - - - - - - 9.3 1016.4 1.4
12/07:00am NW 7 8 - - - - - - - 9.5 1016.2 1.4
12/06:30am NW 7 9 - - - - - - - 9.3 1016.0 1.4
12/06:00am NW 7 9 - - - - - - - 9.3 1015.7 1.4
12/05:30am NW 8 9 - - - - - - - 9.5 1015.6 1.4
12/05:00am NW 7 9 - - - - - - - 9.3 1015.5 1.4
12/04:30am NW 8 11 - - - - - - - 9.4 1015.6 1.4
12/04:00am NW 8 10 - - - - - - - 9.3 1015.5 1.4
12/03:30am NW 8 10 - - - - - - - 9.2 1015.5 1.4
12/03:00am NW 8 10 - - - - - - - 9.0 1015.4 1.4
12/02:30am NNW 7 9 - - - - - - - 8.8 1015.4 1.4
12/02:00am NW 7 7 - - - - - - - 8.6 1015.5 1.4
12/01:30am NW 7 7 - - - - - - - 8.8 1015.4 1.4
12/01:00am NW 7 9 - - - - - - - 9.2 1015.4 1.4
12/12:30am NW 7 7 - - - - - - - 8.7 1015.5 1.4
12/12:00am WNW 6 7 - - - - - - Rain 8.7 1015.7 1.4
 
Date/Time
CST
Wind Sea
Height
m
Swell Vis
km
Cloud Weather Temp
°C
Press
MSL
hPa
Rain since
9am
mm
Dir  Spd
kts
Gust
kts
Height
m
Period
s
Dir
11/11:30pm WNW 6 7 - - - - - - - 8.7 1015.9 1.2
11/11:00pm NW 7 7 - - - - - - - 9.0 1015.9 1.2
11/10:30pm NW 6 7 - - - - - - - 9.4 1015.9 1.2
11/10:00pm WNW 6 7 - - - - - - - 10.0 1015.8 1.2
11/09:30pm WNW 7 7 - - - - - - - 10.2 1015.9 1.2
11/09:00pm WNW 6 7 - - - - - - - 10.3 1015.8 1.2
11/08:30pm NW 6 7 - - - - - - - 10.5 1015.8 1.2
11/08:00pm WNW 6 7 - - - - - - - 10.8 1015.5 1.2
11/07:30pm WNW 5 6 - - - - - - - 11.3 1015.2 1.2
11/07:00pm WSW 5 5 - - - - - - - 11.8 1014.9 1.2
11/06:30pm SW 4 5 - - - - - - - 11.9 1014.5 1.2
11/06:00pm WSW 4 5 - - - - - - - 12.2 1014.1 1.2
11/05:30pm SW 6 7 - - - - - - - 12.2 1013.6 1.2

Other formats

Comma delimited format used in spreadsheet applications
http://www.bom.gov.au/fwo/IDS60701/IDS60701.94677.axf

JavaScript Object Notation format (JSON) in row-major order
http://www.bom.gov.au/fwo/IDS60701/IDS60701.94677.json

Data quality

Most of these data are generated automatically and are frequently updated. Quality checks on data are not normally performed. It is possible for incorrect values to appear. Refer to information at About Latest Weather Observations and please check the disclaimer before using these data.